Time;durP1;ratioP1;P1;durP2;ratioP2;P2;SDS_P1;SDS_P2;PMS_P1;PMS_P2;Temp;Humidity;BMP_temperature;BMP_pressure;BME280_temperature;BME280_humidity;BME280_pressure;Samples;Min_cycle;Max_cycle;Signal;HPM_P1;HPM_P2
2021/05/21 00:02:25;;;;;;;0.82;0.60;;;25.10;57.00;;;;;;5104917;28;20119;-40
2021/05/21 00:04:52;;;;;;;0.50;0.35;;;25.10;57.00;;;;;;5104843;28;20678;-40
2021/05/21 00:07:18;;;;;;;1.27;0.60;;;25.10;57.00;;;;;;5093865;28;20033;-41
2021/05/21 00:09:44;;;;;;;1.05;0.55;;;25.00;56.90;;;;;;5089258;28;20269;-41
2021/05/21 00:12:10;;;;;;;0.65;0.50;;;25.00;56.90;;;;;;5104247;28;20080;-40
2021/05/21 00:14:36;;;;;;;1.30;0.63;;;25.00;56.90;;;;;;5104492;28;20666;-40
2021/05/21 00:17:03;;;;;;;0.88;0.50;;;25.00;57.00;;;;;;5104586;28;20024;-39
2021/05/21 00:19:29;;;;;;;0.82;0.40;;;25.00;57.00;;;;;;5104635;28;20047;-40
2021/05/21 00:21:55;;;;;;;1.65;0.50;;;25.00;57.00;;;;;;5104286;28;20081;-40
2021/05/21 00:24:21;;;;;;;0.60;0.40;;;25.00;57.10;;;;;;5104276;28;20066;-40
2021/05/21 00:26:50;;;;;;;0.65;0.43;;;25.00;57.00;;;;;;5104332;28;20024;-40
2021/05/21 00:29:17;;;;;;;1.00;0.50;;;25.00;57.10;;;;;;5104410;28;20024;-40
2021/05/21 00:31:44;;;;;;;;;;;25.00;57.10;;;;;;5104831;28;20031;-40
2021/05/21 00:34:10;;;;;;;0.40;0.40;;;24.90;57.20;;;;;;5103202;28;20017;-40
2021/05/21 00:36:36;;;;;;;0.60;0.50;;;24.90;57.00;;;;;;5099314;28;20119;-40
2021/05/21 00:39:04;;;;;;;0.65;0.50;;;24.90;57.10;;;;;;5084148;28;20052;-41
2021/05/21 00:41:30;;;;;;;0.80;0.50;;;24.90;57.00;;;;;;5103423;28;20094;-40
2021/05/21 00:43:56;;;;;;;0.50;0.47;;;24.90;57.00;;;;;;5103834;28;20024;-41
2021/05/21 00:46:23;;;;;;;0.75;0.40;;;24.90;57.10;;;;;;5103793;28;20028;-40
2021/05/21 00:48:49;;;;;;;0.43;0.40;;;24.90;56.90;;;;;;5102086;28;20032;-40
2021/05/21 00:51:15;;;;;;;0.45;0.40;;;24.90;57.10;;;;;;5103818;28;20044;-41
2021/05/21 00:53:42;;;;;;;0.73;0.50;;;24.80;57.00;;;;;;5104025;28;20024;-42
2021/05/21 00:56:08;;;;;;;0.73;0.40;;;24.80;57.00;;;;;;5103588;28;20020;-44
2021/05/21 00:58:35;;;;;;;0.52;0.40;;;24.80;57.10;;;;;;5102666;28;20105;-41
2021/05/21 01:01:01;;;;;;;0.47;0.40;;;24.80;57.10;;;;;;5102109;28;20039;-40
2021/05/21 01:03:28;;;;;;;0.85;0.43;;;24.80;57.20;;;;;;5102775;28;20106;-43
2021/05/21 01:05:54;;;;;;;0.60;0.30;;;24.80;57.30;;;;;;5103522;28;20028;-41
2021/05/21 01:08:20;;;;;;;0.40;0.30;;;24.80;57.20;;;;;;5103590;28;20055;-41
2021/05/21 01:10:46;;;;;;;0.77;0.40;;;24.80;57.30;;;;;;5103374;28;20026;-40
2021/05/21 01:13:13;;;;;;;0.40;0.30;;;24.70;57.00;;;;;;5103758;28;20708;-42
2021/05/21 01:15:40;;;;;;;0.33;0.33;;;24.70;57.20;;;;;;5102877;28;20035;-40
2021/05/21 01:18:07;;;;;;;0.60;0.40;;;24.70;57.30;;;;;;5098527;28;20023;-40
2021/05/21 01:20:33;;;;;;;0.65;0.60;;;24.70;57.20;;;;;;5103348;28;20036;-43
2021/05/21 01:23:00;;;;;;;0.40;0.40;;;24.70;57.20;;;;;;5103491;28;20047;-41
2021/05/21 01:25:26;;;;;;;0.60;0.30;;;24.70;57.30;;;;;;5103120;28;20024;-40
2021/05/21 01:27:54;;;;;;;0.60;0.40;;;24.70;57.20;;;;;;5103397;28;20031;-40
2021/05/21 01:30:21;;;;;;;0.32;0.30;;;24.60;57.10;;;;;;5103222;28;20091;-44
2021/05/21 01:32:47;;;;;;;0.67;0.50;;;24.60;57.00;;;;;;5103142;28;20020;-41
2021/05/21 01:35:18;;;;;;;0.77;0.47;;;24.60;57.00;;;;;;5103120;28;20650;-41
2021/05/21 01:37:44;;;;;;;0.77;0.52;;;24.60;57.10;;;;;;5088781;28;20036;-42
2021/05/21 01:40:12;;;;;;;0.30;0.30;;;24.60;57.30;;;;;;5091348;28;20060;-40
2021/05/21 01:42:38;;;;;;;;;;;24.60;57.90;;;;;;5103592;28;20024;-40
2021/05/21 01:45:05;;;;;;;0.98;0.30;;;24.60;57.40;;;;;;5102472;28;19927;-42
2021/05/21 01:47:31;;;;;;;0.40;0.40;;;24.60;57.50;;;;;;5101203;28;20031;-44
2021/05/21 01:49:57;;;;;;;0.68;0.40;;;24.50;57.40;;;;;;5102697;28;20047;-40
2021/05/21 01:52:24;;;;;;;0.50;0.50;;;24.60;57.50;;;;;;5103045;28;20035;-43
2021/05/21 01:54:50;;;;;;;1.23;0.40;;;24.50;57.40;;;;;;5103244;28;20071;-41
2021/05/21 01:57:16;;;;;;;1.05;0.50;;;24.50;58.10;;;;;;5102750;28;20109;-41
2021/05/21 01:59:42;;;;;;;0.95;0.50;;;24.50;57.40;;;;;;5102673;28;20030;-42
2021/05/21 02:02:11;;;;;;;0.45;0.30;;;24.50;57.40;;;;;;5102884;28;20047;-43
2021/05/21 02:04:39;;;;;;;0.30;0.30;;;24.40;57.30;;;;;;5102976;28;20028;-41
2021/05/21 02:07:06;;;;;;;0.98;0.30;;;24.40;57.30;;;;;;5093534;28;20043;-41
2021/05/21 02:09:35;;;;;;;;;;;24.40;57.20;;;;;;5086241;28;20031;-43
2021/05/21 02:12:05;;;;;;;0.57;0.50;;;24.40;56.90;;;;;;5101183;28;19908;-41
2021/05/21 02:14:31;;;;;;;0.30;0.30;;;24.40;56.90;;;;;;5102555;28;20106;-40
2021/05/21 02:16:57;;;;;;;0.50;0.40;;;24.40;57.00;;;;;;5102486;28;20031;-41
2021/05/21 02:19:23;;;;;;;0.70;0.50;;;24.40;56.80;;;;;;5101196;28;20549;-45
2021/05/21 02:21:50;;;;;;;0.43;0.40;;;24.30;56.70;;;;;;5102559;28;20028;-41
2021/05/21 02:24:16;;;;;;;0.80;0.40;;;24.30;56.50;;;;;;5102766;28;20548;-41
2021/05/21 02:26:42;;;;;;;1.20;0.57;;;24.30;56.60;;;;;;5102238;28;20032;-41
2021/05/21 02:29:09;;;;;;;0.68;0.50;;;24.30;56.70;;;;;;5101134;28;20024;-41
2021/05/21 02:31:35;;;;;;;0.70;0.45;;;24.30;57.10;;;;;;5102409;28;20028;-42
2021/05/21 02:34:02;;;;;;;0.63;0.63;;;24.30;56.90;;;;;;5102556;28;20096;-40
2021/05/21 02:36:28;;;;;;;4.03;0.50;;;24.20;57.00;;;;;;5098347;28;20762;-43
2021/05/21 02:38:54;;;;;;;1.08;0.40;;;24.20;57.10;;;;;;5082363;28;20024;-40
2021/05/21 02:41:20;;;;;;;2.22;0.63;;;24.20;57.30;;;;;;5100037;28;20046;-40
2021/05/21 02:43:47;;;;;;;0.70;0.50;;;24.20;57.60;;;;;;5102506;28;20467;-43
2021/05/21 02:46:13;;;;;;;1.23;0.60;;;24.20;57.10;;;;;;5101970;28;20032;-41
2021/05/21 02:48:39;;;;;;;1.08;0.57;;;24.10;57.00;;;;;;5102410;28;20024;-45
2021/05/21 02:51:05;;;;;;;0.82;0.40;;;24.10;56.90;;;;;;5097942;28;20119;-41
2021/05/21 02:53:32;;;;;;;0.90;0.52;;;24.10;56.90;;;;;;5082092;28;20027;-41
2021/05/21 02:55:58;;;;;;;1.85;0.60;;;24.10;56.70;;;;;;5081661;28;20059;-41
2021/05/21 02:58:24;;;;;;;0.40;0.40;;;24.10;56.70;;;;;;5085511;28;20036;-41
2021/05/21 03:00:50;;;;;;;0.70;0.40;;;24.10;56.80;;;;;;5103822;28;20123;-41
2021/05/21 03:03:16;;;;;;;0.80;0.45;;;24.10;56.70;;;;;;5105866;28;20024;-40
2021/05/21 03:05:42;;;;;;;0.75;0.60;;;24.00;56.80;;;;;;5105784;28;20036;-41
2021/05/21 03:08:09;;;;;;;0.70;0.50;;;24.00;56.80;;;;;;5087452;28;20051;-41
2021/05/21 03:10:35;;;;;;;1.58;0.60;;;24.00;56.70;;;;;;5095859;28;20024;-41
2021/05/21 03:13:02;;;;;;;1.25;0.50;;;24.00;56.70;;;;;;5105599;28;20031;-43
2021/05/21 03:15:28;;;;;;;0.57;0.40;;;24.00;56.90;;;;;;5105622;28;20057;-41
2021/05/21 03:17:55;;;;;;;0.50;0.50;;;24.00;56.90;;;;;;5105322;28;20024;-41
2021/05/21 03:20:21;;;;;;;0.40;0.40;;;23.90;56.80;;;;;;5105257;28;20097;-43
2021/05/21 03:22:47;;;;;;;1.95;0.45;;;23.90;56.80;;;;;;5105527;28;20020;-40
2021/05/21 03:25:14;;;;;;;0.90;0.52;;;23.90;56.80;;;;;;5105429;28;20035;-41
2021/05/21 03:27:40;;;;;;;0.45;0.40;;;23.90;57.00;;;;;;5103565;28;20036;-41
2021/05/21 03:30:07;;;;;;;1.02;0.60;;;23.90;57.00;;;;;;5105295;28;20535;-41
2021/05/21 03:32:33;;;;;;;;;;;23.90;57.00;;;;;;5105844;28;20091;-41
2021/05/21 03:34:59;;;;;;;0.77;0.47;;;23.80;56.90;;;;;;5105111;28;19963;-40
2021/05/21 03:37:26;;;;;;;1.42;0.55;;;23.80;57.00;;;;;;5093054;28;20020;-40
2021/05/21 03:39:52;;;;;;;0.80;0.45;;;23.80;57.10;;;;;;5089149;28;20051;-44
2021/05/21 03:42:18;;;;;;;2.17;0.68;;;23.80;57.00;;;;;;5103631;28;20032;-42
2021/05/21 03:44:44;;;;;;;0.57;0.57;;;23.70;57.00;;;;;;5104912;28;20091;-40
2021/05/21 03:47:11;;;;;;;0.77;0.50;;;23.70;57.00;;;;;;5104670;28;20031;-40
2021/05/21 03:49:38;;;;;;;0.73;0.50;;;23.70;57.00;;;;;;5104952;28;20752;-40
2021/05/21 03:52:04;;;;;;;0.50;0.50;;;23.70;57.00;;;;;;5104894;28;20063;-40
2021/05/21 03:54:30;;;;;;;0.52;0.50;;;23.70;57.00;;;;;;5104878;28;20035;-43
2021/05/21 03:56:56;;;;;;;0.70;0.50;;;23.70;57.10;;;;;;5104622;28;20030;-40
2021/05/21 03:59:22;;;;;;;1.23;0.60;;;23.60;57.10;;;;;;5104902;28;20024;-40
2021/05/21 04:01:52;;;;;;;0.50;0.50;;;23.60;57.10;;;;;;5103183;28;20047;-40
2021/05/21 04:04:18;;;;;;;0.63;0.50;;;23.60;57.60;;;;;;5104696;28;20436;-43
2021/05/21 04:06:44;;;;;;;0.70;0.60;;;23.60;57.00;;;;;;5097985;28;20092;-40
2021/05/21 04:09:10;;;;;;;0.50;0.50;;;23.60;57.10;;;;;;5084509;28;20025;-41
2021/05/21 04:11:37;;;;;;;0.63;0.52;;;23.60;57.10;;;;;;5101170;28;20477;-41
2021/05/21 04:14:04;;;;;;;0.70;0.50;;;23.60;57.10;;;;;;5104417;28;20050;-42
2021/05/21 04:16:30;;;;;;;0.55;0.40;;;23.50;57.10;;;;;;5104318;28;20043;-40
2021/05/21 04:18:57;;;;;;;0.63;0.60;;;23.50;57.10;;;;;;5104187;28;20426;-40
2021/05/21 04:21:24;;;;;;;0.85;0.57;;;23.50;57.20;;;;;;5104310;28;20051;-40
2021/05/21 04:23:50;;;;;;;1.48;0.50;;;23.50;57.20;;;;;;5104192;28;20036;-40
2021/05/21 04:26:16;;;;;;;0.60;0.60;;;23.50;57.70;;;;;;5103976;28;20569;-41
2021/05/21 04:28:47;;;;;;;1.75;0.77;;;23.50;57.20;;;;;;5103981;28;20017;-40
2021/05/21 04:31:13;;;;;;;0.57;0.50;;;23.40;57.20;;;;;;5104008;28;20043;-41
2021/05/21 04:33:39;;;;;;;1.35;0.60;;;23.40;57.20;;;;;;5104203;28;20111;-40
2021/05/21 04:36:06;;;;;;;0.85;0.57;;;23.40;57.20;;;;;;5103395;28;20031;-41
2021/05/21 04:38:32;;;;;;;1.00;0.50;;;23.40;57.30;;;;;;5081999;28;20016;-40
2021/05/21 04:40:58;;;;;;;0.60;0.60;;;23.30;57.30;;;;;;5098325;28;20051;-41
2021/05/21 04:43:26;;;;;;;0.80;0.68;;;23.30;57.30;;;;;;5103910;28;20817;-40
2021/05/21 04:45:52;;;;;;;0.75;0.60;;;23.30;57.40;;;;;;5093836;28;20056;-41
2021/05/21 04:48:19;;;;;;;1.60;0.60;;;23.30;57.30;;;;;;5083134;28;20021;-41
2021/05/21 04:50:46;;;;;;;0.65;0.57;;;23.30;57.40;;;;;;5083251;28;20048;-44
2021/05/21 04:53:12;;;;;;;1.38;0.50;;;23.30;57.40;;;;;;5083284;28;20025;-40
2021/05/21 04:55:40;;;;;;;0.75;0.43;;;23.20;57.40;;;;;;5083382;28;20540;-40
2021/05/21 04:58:07;;;;;;;1.35;0.68;;;23.20;57.40;;;;;;5082761;28;20051;-40
2021/05/21 05:00:33;;;;;;;0.60;0.60;;;23.20;57.40;;;;;;5087209;28;20047;-40
2021/05/21 05:03:10;;;;;;;0.47;0.40;;;23.20;57.40;;;;;;5102127;28;20028;-43
2021/05/21 05:05:36;;;;;;;1.50;0.60;;;23.20;57.50;;;;;;5100375;28;20034;-40
2021/05/21 05:08:02;;;;;;;0.60;0.60;;;23.20;57.50;;;;;;5102104;28;20036;-41
2021/05/21 05:10:29;;;;;;;0.63;0.63;;;23.10;57.50;;;;;;5101877;28;20032;-42
2021/05/21 05:12:55;;;;;;;0.60;0.60;;;23.10;57.50;;;;;;5103316;28;20020;-41
2021/05/21 05:15:21;;;;;;;0.80;0.60;;;23.10;57.50;;;;;;5103240;28;20080;-41
2021/05/21 05:17:50;;;;;;;1.30;0.60;;;23.10;57.50;;;;;;5103058;28;20052;-41
2021/05/21 05:20:16;;;;;;;2.80;0.90;;;23.10;57.50;;;;;;5102913;28;20085;-40
2021/05/21 05:22:43;;;;;;;1.08;0.60;;;23.10;57.50;;;;;;5101754;28;20032;-40
2021/05/21 05:25:10;;;;;;;0.70;0.50;;;23.10;57.60;;;;;;5103072;28;20032;-41
2021/05/21 05:27:36;;;;;;;0.90;0.60;;;23.00;57.60;;;;;;5101789;28;20076;-42
2021/05/21 05:30:03;;;;;;;0.52;0.52;;;23.00;57.60;;;;;;5102927;28;20025;-41
2021/05/21 05:32:30;;;;;;;0.57;0.50;;;23.00;57.60;;;;;;5102963;28;20024;-40
2021/05/21 05:34:56;;;;;;;0.88;0.50;;;23.00;57.60;;;;;;5103056;28;20016;-41
2021/05/21 05:37:22;;;;;;;0.60;0.60;;;23.00;57.70;;;;;;5091387;28;20039;-42
2021/05/21 05:39:48;;;;;;;0.88;0.60;;;23.00;57.70;;;;;;5087586;28;20020;-40
2021/05/21 05:42:14;;;;;;;0.98;0.50;;;22.90;57.70;;;;;;5102799;28;20028;-41
2021/05/21 05:44:40;;;;;;;0.60;0.50;;;22.90;57.70;;;;;;5101538;28;20088;-41
2021/05/21 05:47:07;;;;;;;0.63;0.50;;;22.90;57.70;;;;;;5102823;28;20031;-44
2021/05/21 05:49:33;;;;;;;0.50;0.50;;;22.90;57.80;;;;;;5102331;28;20400;-44
2021/05/21 05:51:59;;;;;;;0.57;0.52;;;22.90;57.80;;;;;;5102790;28;20732;-41
2021/05/21 05:54:28;;;;;;;0.55;0.47;;;22.90;57.80;;;;;;5102625;28;20019;-40
2021/05/21 05:56:54;;;;;;;0.63;0.60;;;22.80;57.70;;;;;;5102823;28;20028;-43
2021/05/21 05:59:20;;;;;;;3.37;0.80;;;22.80;57.80;;;;;;5101831;28;20084;-40
2021/05/21 06:01:47;;;;;;;0.68;0.40;;;22.80;57.80;;;;;;5102581;28;20032;-41
2021/05/21 06:04:13;;;;;;;0.50;0.47;;;22.80;57.80;;;;;;5102542;28;20020;-41
2021/05/21 06:06:39;;;;;;;1.30;0.70;;;22.80;57.80;;;;;;5097274;28;20036;-40
2021/05/21 06:09:08;;;;;;;0.90;0.70;;;22.80;57.90;;;;;;5097545;28;20027;-40
2021/05/21 06:11:34;;;;;;;0.50;0.50;;;22.70;57.80;;;;;;5102629;28;20042;-40
2021/05/21 06:14:00;;;;;;;0.65;0.60;;;22.70;57.80;;;;;;5102634;28;20109;-40
2021/05/21 06:16:27;;;;;;;1.05;0.60;;;22.70;57.90;;;;;;5102066;28;20040;-41
2021/05/21 06:18:53;;;;;;;0.52;0.52;;;22.70;57.90;;;;;;5102418;28;20035;-41
2021/05/21 06:21:19;;;;;;;0.95;0.60;;;22.70;57.90;;;;;;5101032;28;20127;-42
2021/05/21 06:23:45;;;;;;;0.85;0.60;;;22.70;58.00;;;;;;5102651;28;20030;-41
2021/05/21 06:28:44;;;;;;;0.60;0.50;;;22.60;58.00;;;;;;5101000;28;20020;-42
2021/05/21 06:31:11;;;;;;;1.10;0.73;;;22.60;58.00;;;;;;5101121;28;20028;-43
2021/05/21 06:33:37;;;;;;;0.60;0.60;;;22.60;58.00;;;;;;5105148;28;20035;-40
2021/05/21 06:36:04;;;;;;;0.90;0.60;;;22.60;58.00;;;;;;5105870;28;20032;-44
2021/05/21 06:38:30;;;;;;;1.02;0.70;;;22.60;58.10;;;;;;5086137;28;20094;-42
2021/05/21 06:40:56;;;;;;;0.90;0.50;;;22.60;58.10;;;;;;5100487;28;20040;-42
2021/05/21 06:43:22;;;;;;;1.48;0.55;;;22.60;58.10;;;;;;5099752;28;20024;-41
2021/05/21 06:45:49;;;;;;;0.50;0.50;;;22.50;58.10;;;;;;5085539;28;20032;-40
2021/05/21 06:48:15;;;;;;;0.70;0.50;;;22.50;58.00;;;;;;5085812;28;20040;-40
2021/05/21 06:50:44;;;;;;;0.40;0.40;;;22.50;58.20;;;;;;5085430;28;20116;-41
2021/05/21 06:53:11;;;;;;;2.95;0.70;;;22.50;58.20;;;;;;5086213;28;20448;-41
2021/05/21 06:55:38;;;;;;;1.38;0.60;;;22.50;58.20;;;;;;5088083;28;20549;-41
2021/05/21 06:58:05;;;;;;;0.93;0.60;;;22.50;58.20;;;;;;5085597;28;20501;-41
2021/05/21 07:00:33;;;;;;;0.73;0.53;;;22.50;58.20;;;;;;5104170;28;20040;-40
2021/05/21 07:02:59;;;;;;;0.85;0.60;;;22.40;58.20;;;;;;5102124;28;20036;-40
2021/05/21 07:05:25;;;;;;;1.13;0.60;;;22.40;58.20;;;;;;5105623;28;20032;-40
2021/05/21 07:07:52;;;;;;;1.02;0.50;;;22.40;58.30;;;;;;5105883;28;20055;-40
2021/05/21 07:10:18;;;;;;;0.65;0.60;;;22.40;58.30;;;;;;5105665;28;20020;-41
2021/05/21 07:12:45;;;;;;;1.23;0.60;;;22.40;58.40;;;;;;5105875;28;20085;-42
2021/05/21 07:15:11;;;;;;;;;;;22.30;58.30;;;;;;5106011;28;20069;-41
2021/05/21 07:17:38;;;;;;;1.23;0.70;;;22.30;58.30;;;;;;5105520;28;19912;-42
2021/05/21 07:20:05;;;;;;;0.73;0.43;;;22.30;58.40;;;;;;5105181;28;20028;-40
2021/05/21 07:22:31;;;;;;;;;;;22.30;58.40;;;;;;5105925;28;20043;-40
2021/05/21 07:24:57;;;;;;;0.85;0.60;;;22.30;58.40;;;;;;5105104;28;19911;-41
2021/05/21 07:27:23;;;;;;;0.60;0.55;;;22.30;58.50;;;;;;5105601;28;20115;-43
2021/05/21 07:29:49;;;;;;;0.80;0.70;;;22.20;58.50;;;;;;5104842;28;20571;-40
2021/05/21 07:32:15;;;;;;;0.70;0.68;;;22.20;58.60;;;;;;5105125;28;20035;-41
2021/05/21 07:34:42;;;;;;;0.75;0.50;;;22.20;58.60;;;;;;5105387;28;20031;-42
2021/05/21 07:37:08;;;;;;;0.73;0.73;;;22.20;58.60;;;;;;5096037;28;20029;-41
2021/05/21 07:39:34;;;;;;;0.85;0.60;;;22.20;58.60;;;;;;5088584;28;20039;-40
2021/05/21 07:42:00;;;;;;;0.90;0.73;;;22.20;58.60;;;;;;5104965;28;20095;-41
2021/05/21 07:44:26;;;;;;;0.50;0.50;;;22.10;58.60;;;;;;5104763;28;20027;-40
2021/05/21 07:46:53;;;;;;;0.60;0.50;;;22.10;58.60;;;;;;5105013;28;20024;-41
2021/05/21 07:49:22;;;;;;;1.00;0.60;;;22.10;58.70;;;;;;5103594;28;20024;-40
2021/05/21 07:51:52;;;;;;;1.52;0.52;;;22.10;58.70;;;;;;5104951;28;20104;-44
2021/05/21 07:54:18;;;;;;;1.17;0.80;;;22.10;58.70;;;;;;5105054;28;20032;-38
2021/05/21 07:56:44;;;;;;;0.80;0.70;;;22.10;58.70;;;;;;5104752;28;20038;-40
2021/05/21 07:59:12;;;;;;;1.38;0.60;;;22.10;58.70;;;;;;5104709;28;20096;-41
2021/05/21 08:01:41;;;;;;;0.63;0.55;;;22.00;58.70;;;;;;5104273;28;20043;-40
2021/05/21 08:04:08;;;;;;;0.95;0.55;;;22.00;58.70;;;;;;5103567;28;20031;-41
2021/05/21 08:06:34;;;;;;;0.67;0.57;;;22.00;58.80;;;;;;5100019;28;20055;-41
2021/05/21 08:09:05;;;;;;;1.80;0.70;;;22.00;58.80;;;;;;5084514;28;20036;-41
2021/05/21 08:11:32;;;;;;;0.73;0.50;;;22.00;58.80;;;;;;5104132;28;20308;-40
2021/05/21 08:13:58;;;;;;;1.60;0.60;;;22.00;58.90;;;;;;5104748;28;20030;-42
2021/05/21 08:16:26;;;;;;;1.17;0.60;;;21.90;58.90;;;;;;5104434;28;20042;-40
2021/05/21 08:18:52;;;;;;;0.50;0.50;;;21.90;58.90;;;;;;5104734;28;20032;-47
2021/05/21 08:21:18;;;;;;;0.90;0.50;;;21.90;58.90;;;;;;5104220;28;20028;-40
2021/05/21 08:23:44;;;;;;;1.17;0.60;;;21.90;58.90;;;;;;5104443;28;20060;-41
2021/05/21 08:26:11;;;;;;;0.93;0.57;;;21.90;59.10;;;;;;5104336;28;20493;-40
2021/05/21 08:28:38;;;;;;;1.00;0.65;;;21.90;59.00;;;;;;5104286;28;20028;-41
2021/05/21 08:31:04;;;;;;;1.17;0.70;;;21.90;59.00;;;;;;5103865;28;20034;-40
2021/05/21 08:33:31;;;;;;;0.90;0.60;;;21.80;59.00;;;;;;5104150;28;20062;-43
2021/05/21 08:35:57;;;;;;;0.50;0.50;;;21.80;59.00;;;;;;5103554;28;20560;-40
2021/05/21 08:38:23;;;;;;;0.80;0.55;;;21.80;59.10;;;;;;5084030;28;20024;-40
2021/05/21 08:40:50;;;;;;;1.40;0.70;;;21.80;59.10;;;;;;5097342;28;20036;-41
2021/05/21 08:43:16;;;;;;;0.65;0.60;;;21.80;59.20;;;;;;5100641;28;20023;-40
2021/05/21 08:45:42;;;;;;;1.00;0.50;;;21.80;59.20;;;;;;5104110;28;20812;-41
2021/05/21 08:48:17;;;;;;;0.90;0.80;;;21.70;59.10;;;;;;5103903;28;20028;-41
2021/05/21 08:50:43;;;;;;;0.70;0.57;;;21.70;59.20;;;;;;5102213;28;20051;-43
2021/05/21 08:53:10;;;;;;;0.68;0.60;;;21.70;59.20;;;;;;5103873;28;20039;-41
2021/05/21 08:55:36;;;;;;;0.57;0.52;;;21.70;59.30;;;;;;5101954;28;20038;-40
2021/05/21 08:58:03;;;;;;;0.90;0.70;;;21.70;59.30;;;;;;5101725;28;20016;-40
2021/05/21 09:00:29;;;;;;;1.58;0.60;;;21.70;59.30;;;;;;5093251;28;20830;-43
2021/05/21 09:02:55;;;;;;;0.82;0.70;;;21.70;59.30;;;;;;5103267;28;20040;-42
2021/05/21 09:05:21;;;;;;;0.90;0.60;;;21.70;59.40;;;;;;5103477;28;20024;-41
2021/05/21 09:07:47;;;;;;;0.80;0.60;;;21.60;59.30;;;;;;5088525;28;20093;-40
2021/05/21 09:10:18;;;;;;;0.50;0.50;;;21.60;59.30;;;;;;5092262;28;20070;-41
2021/05/21 09:12:48;;;;;;;0.55;0.52;;;21.60;59.40;;;;;;5103020;28;20032;-41
2021/05/21 09:15:15;;;;;;;1.23;0.70;;;21.60;59.40;;;;;;5103558;28;20024;-41
2021/05/21 09:17:58;;;;;;;1.02;0.73;;;21.60;59.50;;;;;;5103368;28;20028;-41
2021/05/21 09:20:39;;;;;;;1.00;0.45;;;21.50;59.50;;;;;;5103394;28;20036;-40
2021/05/21 09:23:11;;;;;;;1.33;0.63;;;21.50;59.50;;;;;;5103269;28;20031;-40
2021/05/21 09:25:47;;;;;;;0.73;0.60;;;21.50;59.50;;;;;;5103397;28;20381;-40
2021/05/21 09:28:37;;;;;;;0.77;0.70;;;21.50;59.60;;;;;;5101720;28;20031;-41
2021/05/21 09:31:22;;;;;;;0.68;0.60;;;21.50;59.60;;;;;;5103288;28;20106;-41
2021/05/21 09:33:49;;;;;;;1.65;0.73;;;21.50;59.60;;;;;;5083428;28;20071;-43
2021/05/21 09:36:29;;;;;;;0.75;0.50;;;21.40;59.60;;;;;;5102456;28;20024;-40
2021/05/21 09:38:56;;;;;;;0.73;0.60;;;21.40;59.60;;;;;;5103319;28;20020;-41
2021/05/21 09:41:24;;;;;;;;;;;21.40;59.70;;;;;;5103231;28;20042;-40
2021/05/21 09:43:59;;;;;;;0.70;0.60;;;21.40;59.70;;;;;;5103391;28;19914;-41
2021/05/21 09:46:38;;;;;;;0.52;0.50;;;21.40;59.70;;;;;;5102873;28;20020;-41
2021/05/21 09:49:37;;;;;;;0.55;0.47;;;21.30;59.70;;;;;;5102842;28;20048;-40
2021/05/21 09:52:07;;;;;;;0.90;0.60;;;21.30;59.80;;;;;;5102765;28;20027;-40
2021/05/21 09:54:55;;;;;;;0.60;0.60;;;21.30;59.80;;;;;;5102990;28;20035;-41
2021/05/21 09:57:36;;;;;;;0.82;0.57;;;21.30;59.90;;;;;;5101761;28;20054;-40
2021/05/21 10:00:09;;;;;;;0.90;0.60;;;21.30;59.90;;;;;;5102897;28;20024;-41
2021/05/21 10:02:35;;;;;;;0.68;0.55;;;21.30;59.90;;;;;;5102611;28;20063;-41
2021/05/21 10:05:03;;;;;;;0.80;0.60;;;21.30;59.90;;;;;;5102645;28;20020;-42
2021/05/21 10:07:29;;;;;;;1.15;0.70;;;21.20;59.80;;;;;;5093176;28;20277;-41
2021/05/21 10:09:55;;;;;;;1.00;0.63;;;21.20;59.90;;;;;;5093182;28;20050;-41
2021/05/21 10:12:22;;;;;;;1.05;0.60;;;21.20;59.90;;;;;;5105567;28;20034;-43
2021/05/21 10:14:48;;;;;;;1.02;0.47;;;21.20;60.00;;;;;;5106980;28;20020;-41
2021/05/21 10:17:19;;;;;;;0.60;0.60;;;21.20;60.00;;;;;;5106804;28;20056;-42
2021/05/21 10:19:48;;;;;;;1.00;0.60;;;21.20;60.80;;;;;;5106710;28;20039;-41
2021/05/21 10:22:22;;;;;;;1.05;0.60;;;21.10;60.10;;;;;;5105205;28;20027;-41
2021/05/21 10:24:48;;;;;;;0.65;0.60;;;21.10;60.00;;;;;;5089604;28;20031;-40
2021/05/21 10:27:20;;;;;;;0.90;0.68;;;21.20;60.20;;;;;;5105457;28;20058;-41
2021/05/21 10:30:04;;;;;;;3.50;1.10;;;21.10;60.20;;;;;;5089150;28;20038;-40
2021/05/21 10:32:30;;;;;;;1.70;0.60;;;21.10;60.20;;;;;;5106218;28;20028;-40
2021/05/21 10:34:58;;;;;;;1.03;0.57;;;21.10;60.20;;;;;;5106519;28;20500;-41
2021/05/21 10:37:29;;;;;;;0.80;0.55;;;21.10;60.30;;;;;;5093707;28;20025;-40
2021/05/21 10:40:07;;;;;;;1.05;0.68;;;21.10;60.30;;;;;;5092460;28;20409;-41
2021/05/21 10:43:00;;;;;;;0.70;0.60;;;21.00;60.20;;;;;;5106454;28;20027;-41
2021/05/21 10:45:26;;;;;;;0.68;0.50;;;21.00;60.30;;;;;;5087410;28;20477;-40
2021/05/21 10:47:59;;;;;;;1.00;0.60;;;21.00;60.40;;;;;;5086013;28;20029;-42
2021/05/21 10:50:32;;;;;;;0.85;0.60;;;21.00;60.40;;;;;;5084438;28;20048;-42
2021/05/21 10:53:03;;;;;;;0.52;0.45;;;21.00;60.40;;;;;;5086447;28;20052;-42
2021/05/21 10:55:51;;;;;;;0.80;0.50;;;21.00;60.50;;;;;;5085926;28;20048;-41
2021/05/21 10:58:27;;;;;;;1.00;0.50;;;21.00;60.50;;;;;;5090719;28;20028;-40
2021/05/21 11:01:16;;;;;;;1.25;0.60;;;20.90;60.50;;;;;;5104860;28;20043;-39
2021/05/21 11:04:08;;;;;;;0.88;0.60;;;20.90;60.50;;;;;;5105805;28;20085;-40
2021/05/21 11:06:51;;;;;;;0.73;0.60;;;20.90;60.50;;;;;;5090364;28;20066;-41
2021/05/21 11:09:21;;;;;;;0.80;0.70;;;20.90;60.60;;;;;;5088169;28;20035;-41
2021/05/21 11:11:49;;;;;;;0.50;0.50;;;20.90;60.60;;;;;;5106189;28;20111;-40
2021/05/21 11:14:38;;;;;;;1.30;0.63;;;20.90;60.70;;;;;;5105299;28;20050;-40
2021/05/21 11:17:07;;;;;;;0.52;0.40;;;20.80;60.60;;;;;;5096036;28;20038;-40
2021/05/21 11:19:34;;;;;;;0.70;0.60;;;20.80;60.70;;;;;;5105104;28;20040;-40
2021/05/21 11:22:27;;;;;;;0.80;0.60;;;20.80;60.70;;;;;;5105663;28;20039;-40
2021/05/21 11:24:55;;;;;;;1.00;0.73;;;20.80;60.80;;;;;;5105253;28;20036;-41
2021/05/21 11:27:21;;;;;;;0.60;0.60;;;20.80;60.80;;;;;;5105676;28;20028;-40
2021/05/21 11:29:52;;;;;;;0.60;0.50;;;20.80;60.80;;;;;;5104427;28;20656;-40
2021/05/21 11:32:20;;;;;;;0.95;0.60;;;20.70;60.90;;;;;;5105608;28;20091;-41
2021/05/21 11:34:47;;;;;;;0.75;0.50;;;20.70;60.80;;;;;;5105179;28;20024;-40
2021/05/21 11:37:20;;;;;;;1.60;0.60;;;20.70;60.90;;;;;;5095378;28;20622;-41
2021/05/21 11:39:46;;;;;;;1.02;0.68;;;20.70;60.90;;;;;;5090154;28;20260;-41
2021/05/21 11:42:13;;;;;;;0.63;0.50;;;20.70;60.90;;;;;;5104121;28;20043;-42
2021/05/21 11:44:39;;;;;;;0.45;0.45;;;20.70;61.00;;;;;;5105151;28;20027;-41
2021/05/21 11:47:08;;;;;;;1.25;0.50;;;20.70;61.00;;;;;;5105433;28;20034;-40
2021/05/21 11:49:34;;;;;;;1.00;0.70;;;20.70;61.10;;;;;;5105114;28;20036;-41
2021/05/21 11:52:03;;;;;;;0.95;0.63;;;20.70;61.00;;;;;;5105150;28;20036;-41
2021/05/21 11:54:30;;;;;;;0.70;0.50;;;20.60;61.00;;;;;;5104795;28;20089;-41
2021/05/21 11:56:57;;;;;;;0.70;0.50;;;20.60;61.00;;;;;;5105235;28;20035;-41
2021/05/21 11:59:23;;;;;;;1.10;0.80;;;20.60;61.10;;;;;;5105109;28;20031;-40
2021/05/21 12:01:50;;;;;;;2.43;0.87;;;20.60;61.10;;;;;;5104896;28;20516;-42
2021/05/21 12:04:17;;;;;;;0.93;0.60;;;20.60;61.10;;;;;;5104509;28;20028;-42
2021/05/21 12:06:47;;;;;;;0.65;0.50;;;20.60;61.10;;;;;;5098920;28;20029;-43
2021/05/21 12:09:13;;;;;;;0.47;0.40;;;20.60;61.20;;;;;;5085077;28;20028;-40
2021/05/21 12:11:39;;;;;;;1.60;0.67;;;20.60;61.20;;;;;;5104716;28;20020;-40
2021/05/21 12:14:07;;;;;;;0.50;0.50;;;20.50;61.10;;;;;;5104553;28;20039;-44
2021/05/21 12:16:34;;;;;;;0.75;0.60;;;20.50;61.10;;;;;;5104557;28;20050;-41
2021/05/21 12:19:00;;;;;;;0.57;0.43;;;20.50;61.20;;;;;;5104752;28;20035;-40
2021/05/21 12:21:28;;;;;;;0.63;0.60;;;20.50;61.20;;;;;;5104647;28;20411;-41
2021/05/21 12:23:56;;;;;;;0.80;0.63;;;20.60;61.30;;;;;;5102888;28;20842;-40
2021/05/21 12:26:27;;;;;;;1.25;0.80;;;20.50;61.20;;;;;;5103340;28;20032;-40
2021/05/21 12:28:54;;;;;;;0.70;0.50;;;20.50;61.20;;;;;;5103274;28;20028;-40
2021/05/21 12:31:28;;;;;;;0.60;0.60;;;20.50;61.20;;;;;;5103614;28;20024;-39
2021/05/21 12:33:55;;;;;;;1.00;0.52;;;20.50;61.30;;;;;;5084031;28;20054;-43
2021/05/21 12:36:27;;;;;;;0.60;0.55;;;20.50;61.30;;;;;;5092974;28;20087;-40
2021/05/21 12:39:01;;;;;;;0.60;0.50;;;20.50;61.30;;;;;;5104600;28;20444;-41
2021/05/21 12:41:40;;;;;;;0.43;0.40;;;20.50;61.20;;;;;;5104247;28;20132;-42
2021/05/21 12:44:20;;;;;;;0.50;0.50;;;20.50;61.20;;;;;;5103957;28;20055;-41
2021/05/21 12:46:53;;;;;;;0.68;0.60;;;20.50;61.20;;;;;;5104083;28;20024;-41
2021/05/21 12:49:28;;;;;;;0.70;0.50;;;20.50;61.20;;;;;;5103899;28;20016;-42
2021/05/21 12:51:56;;;;;;;1.08;0.50;;;20.50;61.20;;;;;;5103833;28;20035;-40
2021/05/21 12:54:43;;;;;;;1.20;0.60;;;20.50;61.20;;;;;;5085630;28;20024;-41
2021/05/21 12:57:22;;;;;;;1.25;0.57;;;20.50;61.20;;;;;;5102272;28;20026;-42